Terminal Aerodrome Forecast
Issued by NWS

Home | Current Version | Previous Version | Text Only | Print | Product List | Glossary On
Versions: 1 2 3 4 5 6 7 8 9 10 11 12 13 14 15 16 17 18 19 20 21 22 23
000
FTUS41 KBUF 271125
TAFJHW
TAF
KJHW 271125Z 2712/2812 21007KT P6SM BKN015
     FM271300 22009KT P6SM BKN040
     FM271800 23014G20KT P6SM VCTS SCT035CB
     FM272300 21009KT P6SM SCT045
     FM280200 22010KT 6SM -SHRA BKN045
     FM280600 25007KT P6SM BKN030
      AMD LTD TO CLD VIS AND WIND=

USA.gov is the U.S. government's official web portal to all federal, state and local government web resources and services.